createdAt,value
2018-12-15T00:00:58.060Z,20.47
2018-12-15T00:03:26.770Z,20.43
2018-12-15T00:05:55.679Z,22.83
2018-12-15T00:08:24.203Z,22.63
2018-12-15T00:10:52.708Z,20.77
2018-12-15T00:13:21.847Z,22.87
2018-12-15T00:15:50.422Z,23.77
2018-12-15T00:18:19.172Z,22.13
2018-12-15T00:20:47.691Z,20.00
2018-12-15T00:23:16.147Z,21.40
2018-12-15T00:25:44.628Z,20.43
2018-12-15T00:28:13.160Z,21.93
2018-12-15T00:30:41.891Z,21.03
2018-12-15T00:33:10.365Z,23.30
2018-12-15T00:35:38.876Z,21.77
2018-12-15T00:38:07.383Z,21.87
2018-12-15T00:40:35.894Z,22.73
2018-12-15T00:43:05.549Z,23.13
2018-12-15T00:45:34.030Z,22.27
2018-12-15T00:48:03.493Z,25.03
2018-12-15T00:50:31.982Z,23.30
2018-12-15T00:53:00.614Z,23.50
2018-12-15T00:55:29.329Z,23.30
2018-12-15T00:57:57.837Z,23.00
2018-12-15T01:00:26.452Z,23.97
2018-12-15T01:02:54.867Z,23.43
2018-12-15T01:05:23.646Z,23.90
2018-12-15T01:07:52.375Z,20.07
2018-12-15T01:10:21.470Z,19.83
2018-12-15T01:12:50.027Z,20.87
2018-12-15T01:15:24.322Z,21.23
2018-12-15T01:17:53.855Z,21.53
2018-12-15T01:20:22.376Z,21.40
2018-12-15T01:22:50.888Z,23.97
2018-12-15T01:25:19.702Z,24.60
2018-12-15T01:27:48.178Z,22.87
2018-12-15T01:30:16.971Z,21.47
2018-12-15T01:32:45.495Z,22.93
2018-12-15T01:35:14.111Z,23.87
2018-12-15T01:37:44.545Z,23.60
2018-12-15T01:40:13.217Z,25.97
2018-12-15T01:42:42.033Z,23.63
2018-12-15T01:45:11.183Z,26.00
2018-12-15T01:47:39.708Z,24.37
2018-12-15T01:50:08.338Z,23.73
2018-12-15T01:52:36.850Z,21.90
2018-12-15T01:55:05.586Z,22.33
2018-12-15T01:57:34.078Z,26.10
2018-12-15T02:00:02.613Z,28.53
2018-12-15T02:02:31.298Z,23.63
2018-12-15T02:05:00.999Z,25.57
2018-12-15T02:07:29.706Z,24.67
2018-12-15T02:09:58.703Z,25.20
2018-12-15T02:12:27.859Z,23.97
2018-12-15T02:14:56.403Z,27.10
2018-12-15T02:17:26.262Z,25.83
2018-12-15T02:19:54.927Z,23.93
2018-12-15T02:22:23.522Z,27.27
2018-12-15T02:24:52.038Z,30.20
2018-12-15T02:27:20.615Z,34.40
2018-12-15T02:29:49.058Z,30.70
2018-12-15T02:32:18.036Z,31.13
2018-12-15T02:34:46.600Z,31.17
2018-12-15T02:37:15.682Z,31.30
2018-12-15T02:39:44.200Z,31.20
2018-12-15T02:42:13.728Z,31.67
2018-12-15T02:44:42.282Z,31.40
2018-12-15T02:47:11.129Z,29.47
2018-12-15T02:49:39.583Z,33.97
2018-12-15T02:52:08.140Z,30.87
2018-12-15T02:54:36.681Z,29.60
2018-12-15T02:57:05.572Z,29.47
2018-12-15T02:59:34.049Z,33.30
2018-12-15T03:02:04.049Z,32.13
2018-12-15T03:04:32.589Z,32.80
2018-12-15T03:07:01.064Z,34.63
2018-12-15T03:09:29.971Z,32.97
2018-12-15T03:11:58.568Z,34.37
2018-12-15T03:14:27.061Z,30.50
2018-12-15T03:17:06.167Z,33.77
2018-12-15T03:19:35.299Z,31.60
2018-12-15T03:22:03.759Z,33.43
2018-12-15T03:24:32.565Z,30.57
2018-12-15T03:27:01.806Z,31.50
2018-12-15T03:29:30.279Z,33.57
2018-12-15T03:31:58.929Z,30.60
2018-12-15T03:34:27.543Z,29.63
2018-12-15T03:36:56.193Z,31.97
2018-12-15T03:39:25.251Z,34.60
2018-12-15T03:41:53.862Z,30.67
2018-12-15T03:44:22.489Z,31.30
2018-12-15T03:46:51.898Z,34.17
2018-12-15T03:49:20.533Z,35.83
2018-12-15T03:51:49.023Z,31.93
2018-12-15T03:54:18.038Z,33.47
2018-12-15T03:56:46.700Z,32.03
2018-12-15T03:59:15.766Z,30.70
2018-12-15T04:01:44.314Z,34.97
2018-12-15T04:04:13.594Z,36.43
2018-12-15T04:06:42.177Z,35.63
2018-12-15T04:09:12.089Z,31.63
2018-12-15T04:11:40.605Z,34.93
2018-12-15T04:14:09.861Z,33.03
2018-12-15T04:16:38.389Z,32.50
2018-12-15T04:19:07.502Z,35.77
2018-12-15T04:21:36.359Z,36.80
2018-12-15T04:24:06.889Z,37.47
2018-12-15T04:26:35.407Z,37.33
2018-12-15T04:29:04.695Z,37.63
2018-12-15T04:31:34.704Z,35.93
2018-12-15T04:34:03.525Z,36.47
2018-12-15T04:36:32.149Z,39.20
2018-12-15T04:39:00.716Z,36.33
2018-12-15T04:41:29.135Z,34.67
2018-12-15T04:43:57.949Z,39.33
2018-12-15T04:46:26.993Z,38.97
2018-12-15T04:48:55.513Z,35.60
2018-12-15T04:51:23.983Z,36.00
2018-12-15T04:53:52.617Z,39.27
2018-12-15T04:56:21.094Z,36.40
2018-12-15T04:58:50.160Z,37.40
2018-12-15T05:01:18.739Z,38.43
2018-12-15T05:03:47.252Z,36.80
2018-12-15T05:06:16.969Z,35.43
2018-12-15T05:08:45.777Z,35.83
2018-12-15T05:11:14.377Z,37.93
2018-12-15T05:13:43.692Z,38.57
2018-12-15T05:16:12.197Z,41.43
2018-12-15T05:18:41.551Z,42.43
2018-12-15T05:21:10.093Z,39.60
2018-12-15T05:23:38.914Z,38.80
2018-12-15T05:26:08.057Z,39.27
2018-12-15T05:28:36.521Z,37.37
2018-12-15T05:31:05.044Z,38.77
2018-12-15T05:33:34.183Z,37.77
2018-12-15T05:36:02.800Z,40.67
2018-12-15T05:38:31.343Z,36.47
2018-12-15T05:41:00.586Z,42.63
2018-12-15T05:43:29.196Z,39.17
2018-12-15T05:45:57.741Z,37.53
2018-12-15T05:48:26.494Z,36.83
2018-12-15T05:50:55.899Z,40.23
2018-12-15T05:53:24.466Z,34.43
2018-12-15T05:55:52.960Z,38.17
2018-12-15T05:58:21.796Z,37.73
2018-12-15T06:00:50.839Z,42.37
2018-12-15T06:03:19.966Z,34.73
2018-12-15T06:05:48.478Z,35.80
2018-12-15T06:08:17.611Z,35.57
2018-12-15T06:10:46.111Z,37.83
2018-12-15T06:13:14.962Z,37.27
2018-12-15T06:15:43.609Z,35.07
2018-12-15T06:18:12.068Z,34.37
2018-12-15T06:20:40.642Z,35.50
2018-12-15T06:23:09.555Z,35.17
2018-12-15T06:25:39.188Z,35.57
2018-12-15T06:28:08.477Z,35.20
2018-12-15T06:30:37.210Z,35.70
2018-12-15T06:33:05.833Z,36.87
2018-12-15T06:35:34.749Z,39.07
2018-12-15T06:38:03.578Z,37.90
2018-12-15T06:40:32.094Z,38.80
2018-12-15T06:43:00.595Z,38.13
2018-12-15T06:45:29.137Z,42.20
2018-12-15T06:47:57.635Z,40.90
2018-12-15T06:50:26.209Z,40.23
2018-12-15T06:52:54.699Z,31.10
2018-12-15T06:55:23.221Z,37.93
2018-12-15T06:57:51.693Z,39.93
2018-12-15T07:00:20.202Z,41.27
2018-12-15T07:02:48.883Z,37.00
2018-12-15T07:05:19.366Z,40.40
2018-12-15T07:07:47.911Z,40.33
2018-12-15T07:10:16.427Z,39.43
2018-12-15T07:12:45.455Z,41.37
2018-12-15T07:15:14.105Z,43.13
2018-12-15T07:17:42.631Z,40.47
2018-12-15T07:20:11.145Z,43.03
2018-12-15T07:22:39.749Z,46.03
2018-12-15T07:25:09.495Z,40.03
2018-12-15T07:27:38.712Z,39.63
2018-12-15T07:30:07.580Z,42.63
2018-12-15T07:32:36.348Z,41.93
2018-12-15T07:35:05.718Z,37.40
2018-12-15T07:37:35.198Z,31.50
2018-12-15T07:40:04.241Z,42.30
2018-12-15T07:42:32.861Z,37.67
2018-12-15T07:45:01.386Z,37.00
2018-12-15T07:47:29.846Z,39.33
2018-12-15T07:49:59.067Z,40.63
2018-12-15T07:52:28.239Z,38.93
2018-12-15T07:54:57.452Z,37.13
2018-12-15T07:57:26.144Z,36.27
2018-12-15T07:59:54.733Z,36.07
2018-12-15T08:02:23.410Z,36.77
2018-12-15T08:04:52.103Z,35.67
2018-12-15T08:07:20.763Z,36.03
2018-12-15T08:09:50.225Z,35.53
2018-12-15T08:12:24.208Z,36.73
2018-12-15T08:14:52.958Z,34.37
2018-12-15T08:17:21.520Z,36.23
2018-12-15T08:19:50.772Z,29.50
2018-12-15T08:22:25.946Z,32.80
2018-12-15T08:24:51.618Z,38.07
2018-12-15T08:27:20.337Z,37.73
2018-12-15T08:29:49.041Z,40.10
2018-12-15T08:32:18.159Z,34.77
2018-12-15T08:34:47.230Z,49.93
2018-12-15T08:37:15.716Z,41.77
2018-12-15T08:39:44.368Z,39.57
2018-12-15T08:42:12.902Z,28.17
2018-12-15T08:44:41.487Z,39.23
2018-12-15T08:47:09.990Z,37.27
2018-12-15T08:49:38.606Z,41.73
2018-12-15T08:52:07.486Z,37.80
2018-12-15T08:54:36.119Z,37.93
2018-12-15T08:57:04.678Z,34.50
2018-12-15T08:59:34.214Z,39.30
2018-12-15T09:02:02.969Z,45.13
2018-12-15T09:04:31.779Z,48.00
2018-12-15T09:07:00.259Z,37.77
2018-12-15T09:09:28.928Z,44.80
2018-12-15T09:11:57.384Z,37.10
2018-12-15T09:14:27.106Z,38.47
2018-12-15T09:16:56.307Z,37.27
2018-12-15T09:19:24.948Z,38.13
2018-12-15T09:21:53.436Z,35.40
2018-12-15T09:24:23.001Z,36.57
2018-12-15T09:26:52.158Z,34.20
2018-12-15T09:29:21.625Z,32.23
2018-12-15T09:31:50.578Z,32.57
2018-12-15T09:34:20.069Z,39.80
2018-12-15T09:36:48.569Z,38.90
2018-12-15T09:39:17.086Z,37.67
2018-12-15T09:41:46.018Z,39.80
2018-12-15T09:44:14.504Z,39.37
2018-12-15T09:46:43.035Z,36.97
2018-12-15T09:49:17.554Z,35.30
2018-12-15T09:51:42.069Z,32.87
2018-12-15T09:54:10.668Z,40.17
2018-12-15T09:56:39.326Z,35.63
2018-12-15T09:59:07.894Z,33.60
2018-12-15T10:01:36.580Z,29.30
2018-12-15T10:04:05.191Z,31.67
2018-12-15T10:06:34.076Z,31.43
2018-12-15T10:09:03.123Z,29.87
2018-12-15T10:11:31.678Z,29.57
2018-12-15T10:14:00.748Z,28.97
2018-12-15T10:16:29.769Z,30.57
2018-12-15T10:18:58.307Z,32.07
2018-12-15T10:21:26.854Z,31.83
2018-12-15T10:23:55.365Z,27.87
2018-12-15T10:26:23.866Z,26.13
2018-12-15T10:28:52.416Z,26.70
2018-12-15T10:31:27.150Z,22.03
2018-12-15T10:33:56.340Z,23.80
2018-12-15T10:36:24.940Z,23.37
2018-12-15T10:38:53.482Z,24.27
2018-12-15T10:41:22.176Z,22.37
2018-12-15T10:43:50.692Z,20.77
2018-12-15T10:46:19.276Z,23.30
2018-12-15T10:48:47.792Z,21.53
2018-12-15T10:51:17.260Z,21.17
2018-12-15T10:53:45.944Z,21.00
2018-12-15T10:56:14.478Z,20.17
2018-12-15T10:58:43.063Z,23.27
2018-12-15T11:01:16.883Z,20.73
2018-12-15T11:03:46.028Z,23.18
2018-12-15T11:06:15.119Z,22.13
2018-12-15T11:08:44.416Z,21.13
2018-12-15T11:11:13.128Z,21.13
2018-12-15T11:13:41.649Z,20.47
2018-12-15T11:16:10.470Z,17.37
2018-12-15T11:18:39.120Z,16.83
2018-12-15T11:21:07.601Z,16.27
2018-12-15T11:23:36.129Z,16.13
2018-12-15T11:26:04.759Z,16.40
2018-12-15T11:31:07.065Z,16.90
2018-12-15T11:33:35.851Z,17.57
2018-12-15T11:36:04.689Z,19.63
2018-12-15T11:38:33.716Z,17.07
2018-12-15T11:41:02.339Z,19.27
2018-12-15T11:43:30.859Z,20.20
2018-12-15T11:45:59.430Z,24.00
2018-12-15T11:48:27.948Z,21.07
2018-12-15T11:50:56.574Z,21.57
2018-12-15T11:53:25.486Z,24.40
2018-12-15T11:55:54.406Z,24.27
2018-12-15T11:58:23.339Z,21.40
2018-12-15T12:00:52.236Z,21.37
2018-12-15T12:03:20.824Z,21.90
2018-12-15T12:05:50.111Z,23.50
2018-12-15T12:08:19.331Z,20.27
2018-12-15T12:10:47.834Z,21.43
2018-12-15T12:13:16.363Z,19.07
2018-12-15T12:15:45.589Z,21.10
2018-12-15T12:18:15.129Z,19.23
2018-12-15T12:20:44.284Z,20.97
2018-12-15T12:23:12.874Z,21.17
2018-12-15T12:25:41.481Z,21.30
2018-12-15T12:28:11.419Z,20.47
2018-12-15T12:30:40.525Z,19.55
2018-12-15T12:33:09.030Z,20.43
2018-12-15T12:35:37.499Z,20.17
2018-12-15T12:38:06.367Z,20.17
2018-12-15T12:40:34.816Z,22.53
2018-12-15T12:43:03.400Z,22.17
2018-12-15T12:45:32.242Z,20.23
2018-12-15T12:48:00.744Z,21.80
2018-12-15T12:50:29.241Z,20.67
2018-12-15T12:52:57.718Z,20.43
2018-12-15T12:55:26.773Z,20.17
2018-12-15T12:57:55.301Z,17.40
2018-12-15T13:00:23.900Z,19.23
2018-12-15T13:02:52.371Z,19.97
2018-12-15T13:05:20.886Z,20.83
2018-12-15T13:07:49.498Z,20.30
2018-12-15T13:10:18.154Z,18.33
2018-12-15T13:12:46.635Z,19.50
2018-12-15T13:15:15.176Z,22.87
2018-12-15T13:17:43.732Z,21.17
2018-12-15T13:20:12.662Z,18.30
2018-12-15T13:22:41.280Z,18.37
2018-12-15T13:25:09.867Z,20.27
2018-12-15T13:27:38.375Z,22.23
2018-12-15T13:30:08.190Z,19.73
2018-12-15T13:32:36.948Z,20.87
2018-12-15T13:35:06.189Z,21.07
2018-12-15T13:37:34.742Z,21.57
2018-12-15T13:40:03.773Z,19.67
2018-12-15T13:42:32.512Z,19.83
2018-12-15T13:45:01.313Z,23.23
2018-12-15T13:47:30.647Z,21.03
2018-12-15T13:49:59.369Z,22.00
2018-12-15T13:52:27.941Z,21.53
2018-12-15T13:54:56.533Z,21.17
2018-12-15T13:57:25.309Z,23.70
2018-12-15T13:59:53.912Z,20.30
2018-12-15T14:02:22.768Z,21.30
2018-12-15T14:04:52.413Z,19.20
2018-12-15T14:07:21.472Z,20.87
2018-12-15T14:09:50.111Z,19.87
2018-12-15T14:12:18.644Z,20.33
2018-12-15T14:14:47.179Z,21.80
2018-12-15T14:17:15.776Z,20.40
2018-12-15T14:19:44.274Z,20.57
2018-12-15T14:22:13.386Z,22.93
2018-12-15T14:24:42.073Z,22.03
2018-12-15T14:27:10.665Z,20.27
2018-12-15T14:29:39.224Z,21.60
2018-12-15T14:32:07.720Z,20.40
2018-12-15T14:34:36.257Z,16.90
2018-12-15T14:37:04.956Z,20.37
2018-12-15T14:39:33.456Z,20.77
2018-12-15T14:42:02.481Z,21.77
2018-12-15T14:44:30.977Z,23.97
2018-12-15T14:46:59.671Z,21.83
2018-12-15T14:49:28.199Z,21.77
2018-12-15T14:51:56.716Z,20.13
2018-12-15T14:54:25.209Z,20.80
2018-12-15T14:56:53.782Z,19.13
2018-12-15T14:59:22.444Z,14.73
2018-12-15T15:01:51.394Z,16.03
2018-12-15T15:04:19.842Z,16.13
2018-12-15T15:06:48.380Z,18.70
2018-12-15T15:09:16.968Z,13.03
2018-12-15T15:11:45.602Z,15.00
2018-12-15T15:14:14.406Z,14.80
2018-12-15T15:16:42.902Z,14.77
2018-12-15T15:19:11.391Z,16.33
2018-12-15T15:21:39.939Z,14.50
2018-12-15T15:24:08.715Z,16.83
2018-12-15T15:26:38.337Z,15.53
2018-12-15T15:29:06.852Z,16.33
2018-12-15T15:31:35.341Z,16.43
2018-12-15T15:34:03.988Z,17.63
2018-12-15T15:36:32.556Z,17.07
2018-12-15T15:39:01.129Z,17.93
2018-12-15T15:41:29.624Z,16.03
2018-12-15T15:43:58.759Z,16.75
2018-12-15T15:46:27.236Z,16.30
2018-12-15T15:48:55.911Z,20.60
2018-12-15T15:51:25.435Z,17.07
2018-12-15T15:53:53.924Z,19.73
2018-12-15T15:56:22.421Z,18.27
2018-12-15T15:58:50.903Z,20.53
2018-12-15T16:01:19.616Z,20.97
2018-12-15T16:03:48.247Z,18.77
2018-12-15T16:06:16.853Z,19.73
2018-12-15T16:08:45.332Z,18.17
2018-12-15T16:11:13.803Z,22.10
2018-12-15T16:13:43.344Z,16.63
2018-12-15T16:16:24.507Z,15.30
2018-12-15T16:18:53.899Z,18.03
2018-12-15T16:21:22.417Z,17.43
2018-12-15T16:23:51.070Z,22.07
2018-12-15T16:26:19.756Z,19.70
2018-12-15T16:28:48.341Z,17.40
2018-12-15T16:31:16.883Z,17.30
2018-12-15T16:33:45.800Z,19.40
2018-12-15T16:36:14.436Z,16.53
2018-12-15T16:38:42.943Z,19.43
2018-12-15T16:41:11.506Z,20.10
2018-12-15T16:43:40.671Z,23.03
2018-12-15T16:46:09.542Z,19.53
2018-12-15T16:48:38.528Z,19.03
2018-12-15T16:51:07.034Z,18.57
2018-12-15T16:53:35.582Z,17.50
2018-12-15T16:56:04.149Z,18.00
2018-12-15T16:58:33.166Z,17.53
2018-12-15T17:01:01.857Z,20.53
2018-12-15T17:03:30.690Z,19.87
2018-12-15T17:05:59.360Z,17.97
2018-12-15T17:08:28.026Z,21.70
2018-12-15T17:10:56.618Z,22.87
2018-12-15T17:13:25.770Z,21.77
2018-12-15T17:15:54.452Z,21.27
2018-12-15T17:18:23.991Z,20.07
2018-12-15T17:20:56.696Z,25.87
2018-12-15T17:23:23.370Z,22.33
2018-12-15T17:25:51.996Z,24.43
2018-12-15T17:28:20.493Z,31.83
2018-12-15T17:30:49.109Z,28.93
2018-12-15T17:33:17.575Z,30.30
2018-12-15T17:35:46.024Z,33.00
2018-12-15T17:38:15.718Z,28.63
2018-12-15T17:40:44.241Z,25.70
2018-12-15T17:43:12.735Z,27.77
2018-12-15T17:45:42.678Z,26.70
2018-12-15T17:48:11.697Z,23.57
2018-12-15T17:50:40.275Z,26.27
2018-12-15T17:53:08.779Z,24.20
2018-12-15T17:55:37.316Z,25.30
2018-12-15T17:58:05.840Z,26.10
2018-12-15T18:00:34.397Z,30.00
2018-12-15T18:03:03.205Z,30.37
2018-12-15T18:05:31.683Z,22.70
2018-12-15T18:08:00.213Z,22.57
2018-12-15T18:10:28.856Z,26.20
2018-12-15T18:12:57.330Z,28.77
2018-12-15T18:15:25.957Z,27.70
2018-12-15T18:17:55.370Z,29.87
2018-12-15T18:20:23.891Z,33.73
2018-12-15T18:22:52.391Z,36.73
2018-12-15T18:25:20.935Z,40.53
2018-12-15T18:27:49.596Z,39.60
2018-12-15T18:30:18.105Z,35.53
2018-12-15T18:32:46.649Z,41.43
2018-12-15T18:35:15.176Z,42.57
2018-12-15T18:37:43.643Z,47.27
2018-12-15T18:40:12.242Z,42.50
2018-12-15T18:42:40.713Z,49.83
2018-12-15T18:45:09.496Z,52.93
2018-12-15T18:47:38.352Z,50.73
2018-12-15T18:50:09.148Z,48.57
2018-12-15T18:52:37.772Z,43.97
2018-12-15T18:55:06.421Z,50.83
2018-12-15T18:57:34.976Z,41.57
2018-12-15T19:00:03.979Z,36.83
2018-12-15T19:02:32.558Z,42.33
2018-12-15T19:05:01.988Z,49.17
2018-12-15T19:07:30.453Z,53.83
2018-12-15T19:09:59.878Z,50.53
2018-12-15T19:12:28.393Z,48.67
2018-12-15T19:14:58.267Z,37.03
2018-12-15T19:17:27.294Z,39.27
2018-12-15T19:19:56.634Z,40.23
2018-12-15T19:22:25.143Z,34.00
2018-12-15T19:24:53.700Z,35.93
2018-12-15T19:27:22.200Z,32.07
2018-12-15T19:29:50.869Z,31.97
2018-12-15T19:32:19.327Z,29.80
2018-12-15T19:34:52.404Z,32.23
2018-12-15T19:37:19.237Z,32.70
2018-12-15T19:39:47.742Z,28.13
2018-12-15T19:42:16.599Z,29.17
2018-12-15T19:44:45.169Z,32.97
2018-12-15T19:47:13.968Z,34.50
2018-12-15T19:49:43.561Z,31.97
2018-12-15T19:52:13.292Z,33.83
2018-12-15T19:54:42.265Z,31.83
2018-12-15T19:57:11.053Z,30.90
2018-12-15T19:59:40.048Z,29.20
2018-12-15T20:02:09.261Z,29.50
2018-12-15T20:04:38.034Z,30.20
2018-12-15T20:07:08.460Z,30.80
2018-12-15T20:09:37.657Z,28.73
2018-12-15T20:12:06.654Z,31.87
2018-12-15T20:14:35.540Z,30.33
2018-12-15T20:17:05.148Z,29.13
2018-12-15T20:19:34.141Z,28.40
2018-12-15T20:22:03.034Z,27.33
2018-12-15T20:24:34.297Z,30.60
2018-12-15T20:27:02.779Z,31.57
2018-12-15T20:29:31.863Z,26.03
2018-12-15T20:32:00.905Z,31.63
2018-12-15T20:34:29.371Z,26.93
2018-12-15T20:36:58.044Z,29.47
2018-12-15T20:39:26.803Z,28.57
2018-12-15T20:41:55.304Z,28.33
2018-12-15T20:44:23.994Z,30.77
2018-12-15T20:46:52.990Z,29.13
2018-12-15T20:49:22.108Z,32.90
2018-12-15T20:51:50.569Z,32.13
2018-12-15T20:54:19.964Z,37.50
2018-12-15T20:56:48.637Z,38.70
2018-12-15T20:59:17.154Z,39.23
2018-12-15T21:01:45.693Z,39.07
2018-12-15T21:04:14.175Z,39.33
2018-12-15T21:06:42.704Z,38.37
2018-12-15T21:09:11.752Z,34.90
2018-12-15T21:11:40.998Z,31.97
2018-12-15T21:14:09.521Z,34.57
2018-12-15T21:16:38.748Z,36.00
2018-12-15T21:19:07.294Z,34.73
2018-12-15T21:21:35.949Z,39.73
2018-12-15T21:24:04.696Z,31.83
2018-12-15T21:26:33.216Z,37.57
2018-12-15T21:29:01.726Z,38.37
2018-12-15T21:31:30.443Z,37.20
2018-12-15T21:33:59.079Z,38.23
2018-12-15T21:36:27.530Z,37.13
2018-12-15T21:38:56.065Z,37.40
2018-12-15T21:41:24.577Z,37.97
2018-12-15T21:43:53.089Z,43.93
2018-12-15T21:46:23.474Z,45.80
2018-12-15T21:48:52.481Z,45.17
2018-12-15T21:51:21.670Z,42.47
2018-12-15T21:53:51.270Z,46.67
2018-12-15T21:56:20.076Z,42.47
2018-12-15T21:58:48.658Z,41.70
2018-12-15T22:01:17.195Z,43.43
2018-12-15T22:03:45.749Z,40.87
2018-12-15T22:06:14.226Z,41.90
2018-12-15T22:08:42.737Z,44.03
2018-12-15T22:11:12.324Z,42.13
2018-12-15T22:13:40.826Z,47.93
2018-12-15T22:16:09.651Z,45.33
2018-12-15T22:18:38.661Z,43.10
2018-12-15T22:21:07.127Z,41.53
2018-12-15T22:23:35.919Z,45.10
2018-12-15T22:26:06.301Z,39.33
2018-12-15T22:28:34.975Z,43.03
2018-12-15T22:31:04.331Z,42.80
2018-12-15T22:33:33.266Z,42.80
2018-12-15T22:36:02.601Z,46.37
2018-12-15T22:38:31.285Z,43.43
2018-12-15T22:40:59.856Z,43.60
2018-12-15T22:43:28.340Z,44.80
2018-12-15T22:45:57.050Z,44.00
2018-12-15T22:48:25.748Z,49.87
2018-12-15T22:50:54.480Z,42.13
2018-12-15T22:53:23.401Z,50.50
2018-12-15T22:55:51.873Z,51.60
2018-12-15T22:58:20.615Z,54.43
2018-12-15T23:00:55.193Z,52.67
2018-12-15T23:03:24.499Z,52.77
2018-12-15T23:05:53.031Z,52.50
2018-12-15T23:08:22.492Z,54.03
2018-12-15T23:10:51.092Z,53.70
2018-12-15T23:13:20.317Z,56.57
2018-12-15T23:15:49.087Z,62.53
2018-12-15T23:18:18.327Z,57.07
2018-12-15T23:20:46.810Z,59.00
2018-12-15T23:23:15.500Z,57.13
2018-12-15T23:25:44.015Z,59.27
2018-12-15T23:28:12.717Z,65.20
2018-12-15T23:30:41.396Z,60.73
2018-12-15T23:33:10.519Z,56.77
2018-12-15T23:35:39.066Z,61.53
2018-12-15T23:38:08.377Z,66.57
2018-12-15T23:40:37.027Z,57.53
2018-12-15T23:43:05.560Z,63.30
2018-12-15T23:45:34.226Z,67.03
2018-12-15T23:48:02.967Z,58.73
2018-12-15T23:50:31.522Z,67.07
2018-12-15T23:53:00.462Z,63.70
2018-12-15T23:55:28.943Z,62.40
2018-12-15T23:57:58.061Z,68.03
